Meath Environmental Platform

Observations for Trim Market St

Time AQI Temp °C Hum % Pres Pa CO μg/m³ H₂S μg/m³ NO μg/m³ NO₂ μg/m³ O₃ μg/m³ SO₂ μg/m³ PM1 μg/m³ PM2.5 μg/m³ PM10 μg/m³
Thursday 13 August 2026
20:35 3 29.5 46 64,031 0 7.89 0.46 31.59 51.36 0 0 2.62 2.88
20:31 3 29.6 46 64,303 0 5.02 0.5 23.46 56.27 0 0 2.63 2.9
20:29 3 29.6 46 64,327 0 6.62 0.5 27.93 54.46 0 0 2.64 2.9
20:25 3 29.8 45 64,462 0 6.42 0.52 31.36 53.5 0 0.71 3.17 3.49
20:18 3 29.9 45 64,841 0 6.53 0.51 23.76 56.41 0 0.71 3.2 3.52
20:16 3 30 44 64,870 0 7.81 0.47 34.39 53.65 0 0.71 3.21 3.53
20:15 3 30 44 64,878 0 6.38 0.47 35.08 52.25 0 0 2.69 2.96
20:14 3 30 44 64,919 0 7.32 0.46 26.12 56.64 0 0 2.69 2.96
20:13 3 30 44 64,975 0 7.83 0.47 34.16 54.42 0 1.43 4.26 4.41
20:12 3 30 44 65,017 0 7.75 0.51 27.59 56.38 0 0.71 3.22 3.54
20:11 3 30 44 65,068 0 8.69 0.49 34.35 53.11 0 0.71 2.7 2.97
20:10 3 30.1 44 65,105 0 11.18 0.51 35.9 52.93 0 1.43 3.75 4.13
20:09 3 30.1 44 65,121 0.12 11.39 0.49 36.27 50.77 0 0.71 3.23 3.62
20:08 3 30.1 44 65,145 0 9.33 0.49 31.5 55.54 0 0.71 2.71 2.98
20:07 3 30.1 44 65,174 0 9.7 0.45 47.25 49.47 0 0 3.23 3.56
20:06 3 30.2 44 65,244 0 10.63 0.46 41.78 52 0 0 3.24 3.57
20:05 3 30.2 44 65,329 0 13.13 0.45 49.04 49.61 0 0 2.72 3
20:04 3 30.2 43 65,416 0 9.88 0.46 38.2 54.45 0 0.71 3.26 3.59
20:03 3 30.2 43 65,468 0 6.67 0.48 32.89 56.82 0 0.71 3.27 3.6
20:00 3 30.3 43 65,542 0 7.76 0.52 51.03 47.29 0 14.25 15.88 22.51